Time;durP1;ratioP1;P1;durP2;ratioP2;P2;SDS_P1;SDS_P2;PMS_P1;PMS_P2;Temp;Humidity;BMP_temperature;BMP_pressure;BME280_temperature;BME280_humidity;BME280_pressure;Samples;Min_cycle;Max_cycle;Signal;HPM_P1;HPM_P2
2021/08/11 00:06:08;;;;;;;1.73;1.05;;;20.70;62.70;;;;;;21082369;28;20067;-21
2021/08/11 00:16:09;;;;;;;2.55;1.67;;;20.70;62.70;;;;;;21081840;28;20044;-21
2021/08/11 00:26:11;;;;;;;1.73;1.33;;;20.70;62.70;;;;;;21070875;28;20120;-21
2021/08/11 00:36:12;;;;;;;1.75;1.20;;;20.70;62.70;;;;;;21072173;28;20032;-21
2021/08/11 00:46:12;;;;;;;2.30;1.50;;;20.70;62.70;;;;;;21070429;28;20036;-21
2021/08/11 00:56:18;;;;;;;2.88;1.73;;;20.60;62.60;;;;;;21070760;28;20076;-19
2021/08/11 01:06:18;;;;;;;1.92;1.27;;;20.60;62.70;;;;;;21035705;28;1034232;-19
2021/08/11 01:16:19;;;;;;;2.25;1.30;;;20.60;62.70;;;;;;21074036;28;20039;-20
2021/08/11 01:26:53;;;;;;;1.98;1.13;;;20.60;62.60;;;;;;21074535;28;20036;-20
2021/08/11 01:36:58;;;;;;;2.15;1.35;;;20.60;62.70;;;;;;21071919;28;20037;-21
2021/08/11 01:46:59;;;;;;;2.30;1.38;;;20.60;62.60;;;;;;21069628;28;20032;-21
2021/08/11 01:57:01;;;;;;;1.40;1.08;;;20.60;62.60;;;;;;21069233;28;20036;-21
2021/08/11 02:07:02;;;;;;;2.10;1.40;;;20.70;62.70;;;;;;21068617;28;20036;-20
2021/08/11 02:17:03;;;;;;;2.28;1.25;;;20.60;62.60;;;;;;21068147;28;20110;-21
2021/08/11 02:27:10;;;;;;;2.72;1.48;;;20.60;62.60;;;;;;21067536;28;20570;-21
2021/08/11 02:37:20;;;;;;;2.58;1.25;;;20.60;62.50;;;;;;21066898;28;20044;-20
2021/08/11 02:47:23;;;;;;;2.00;1.10;;;20.60;62.50;;;;;;21068564;28;20036;-22
2021/08/11 02:57:24;;;;;;;2.95;1.48;;;20.60;62.60;;;;;;21083174;28;20423;-21
2021/08/11 03:07:25;;;;;;;1.27;1.00;;;20.60;62.50;;;;;;21082486;28;20074;-22
2021/08/11 03:17:26;;;;;;;2.20;1.38;;;20.60;62.50;;;;;;21081611;28;20066;-20
2021/08/11 03:27:26;;;;;;;1.63;1.10;;;20.60;62.50;;;;;;21082611;28;20071;-19
2021/08/11 03:37:27;;;;;;;2.17;1.00;;;20.60;62.50;;;;;;21080206;28;20446;-21
2021/08/11 03:47:27;;;;;;;1.98;1.20;;;20.50;62.40;;;;;;21080294;28;20420;-20
2021/08/11 03:57:28;;;;;;;2.65;1.40;;;20.50;62.40;;;;;;21078425;28;20028;-21
2021/08/11 04:07:28;;;;;;;1.70;1.15;;;20.60;62.50;;;;;;21076769;28;20120;-21
2021/08/11 04:17:29;;;;;;;1.88;1.38;;;20.50;62.40;;;;;;21077029;28;20107;-20
2021/08/11 04:27:30;;;;;;;1.75;1.20;;;20.50;62.40;;;;;;21076196;28;20039;-21
2021/08/11 04:37:30;;;;;;;1.48;1.15;;;20.50;62.40;;;;;;21080026;28;20170;-20
2021/08/11 04:47:31;;;;;;;1.23;1.10;;;20.50;62.40;;;;;;21076429;28;20119;-20
2021/08/11 04:57:31;;;;;;;1.83;1.15;;;20.50;62.40;;;;;;21074376;28;20103;-20
2021/08/11 05:07:32;;;;;;;1.23;0.80;;;20.50;62.40;;;;;;21043359;22;20083;-20
2021/08/11 05:17:32;;;;;;;1.95;1.20;;;20.50;62.40;;;;;;20987572;28;20483;-20
2021/08/11 05:27:33;;;;;;;2.20;1.25;;;20.50;62.40;;;;;;20986750;28;20049;-20
2021/08/11 05:37:33;;;;;;;1.95;1.13;;;20.50;62.40;;;;;;20993729;28;20116;-20
2021/08/11 05:47:34;;;;;;;2.00;1.00;;;20.50;62.50;;;;;;20986078;28;20040;-21
2021/08/11 05:57:38;;;;;;;2.33;1.15;;;20.50;62.40;;;;;;21001310;28;20082;-19
2021/08/11 06:07:39;;;;;;;1.67;1.00;;;20.50;62.40;;;;;;20984954;28;20545;-20
2021/08/11 06:17:46;;;;;;;1.90;1.13;;;20.50;62.40;;;;;;20984639;28;20037;-19
2021/08/11 06:27:46;;;;;;;1.98;1.13;;;20.50;62.40;;;;;;20990899;28;20120;-21
2021/08/11 06:37:49;;;;;;;2.42;0.90;;;20.50;62.40;;;;;;20986573;28;20060;-20
2021/08/11 06:47:50;;;;;;;1.48;0.90;;;20.50;62.40;;;;;;20986719;28;20131;-21
2021/08/11 06:57:51;;;;;;;2.10;1.10;;;20.50;62.50;;;;;;21014799;28;20032;-21
2021/08/11 07:07:51;;;;;;;1.30;0.83;;;20.50;62.40;;;;;;20985850;28;20041;-20
2021/08/11 07:17:56;;;;;;;2.13;1.20;;;20.50;62.40;;;;;;20983730;28;20465;-20
2021/08/11 07:27:57;;;;;;;2.33;1.20;;;20.50;62.40;;;;;;20983240;28;20467;-21
2021/08/11 07:37:57;;;;;;;1.08;0.98;;;20.60;62.40;;;;;;20991962;28;20061;-20
2021/08/11 07:47:59;;;;;;;2.63;1.50;;;20.60;62.40;;;;;;21000358;28;20480;-20
2021/08/11 07:58:00;;;;;;;1.70;1.13;;;20.60;62.40;;;;;;20996031;28;20127;-22
2021/08/11 08:08:01;;;;;;;2.08;1.38;;;20.60;62.40;;;;;;20994828;28;20036;-21
2021/08/11 08:18:02;;;;;;;1.70;1.10;;;20.60;62.40;;;;;;20994247;28;20037;-21
2021/08/11 08:28:03;;;;;;;1.65;1.00;;;20.60;62.30;;;;;;20993083;28;20051;-21
2021/08/11 08:38:04;;;;;;;2.65;1.30;;;20.60;62.30;;;;;;20992108;28;20028;-21
2021/08/11 08:48:05;;;;;;;2.03;1.40;;;20.60;62.40;;;;;;20990044;28;20033;-21
2021/08/11 08:58:06;;;;;;;2.40;1.70;;;20.70;62.50;;;;;;20996992;28;20075;-20
2021/08/11 09:08:08;;;;;;;1.60;0.93;;;20.70;62.50;;;;;;20993385;28;20176;-22
2021/08/11 09:18:15;;;;;;;2.50;1.20;;;20.70;62.50;;;;;;20989461;28;20037;-20
2021/08/11 09:28:17;;;;;;;2.15;1.40;;;20.60;62.60;;;;;;20988348;28;20040;-20
2021/08/11 09:38:19;;;;;;;2.72;1.58;;;20.70;62.80;;;;;;20987478;28;20029;-20
2021/08/11 09:48:21;;;;;;;2.25;1.58;;;20.70;62.70;;;;;;20987768;28;20036;-20
2021/08/11 09:58:22;;;;;;;2.25;1.55;;;20.70;62.70;;;;;;20991431;28;20040;-20
2021/08/11 10:08:31;;;;;;;2.20;1.50;;;20.70;62.80;;;;;;20992787;28;20455;-21
2021/08/11 10:18:37;;;;;;;2.55;1.55;;;20.70;62.90;;;;;;20988705;28;20056;-21
2021/08/11 10:28:42;;;;;;;2.45;1.50;;;20.70;63.00;;;;;;20986844;28;20476;-21
2021/08/11 10:38:43;;;;;;;2.03;1.38;;;20.70;63.00;;;;;;20984982;28;20036;-21
2021/08/11 10:49:08;;;;;;;2.08;1.42;;;20.70;63.10;;;;;;20995470;28;20040;-22
2021/08/11 10:59:28;;;;;;;1.90;1.50;;;20.70;63.00;;;;;;20987984;28;20029;-21
2021/08/11 11:09:29;;;;;;;2.03;1.48;;;20.70;63.00;;;;;;21080733;22;20612;-21
2021/08/11 11:19:31;;;;;;;2.22;1.35;;;20.70;62.90;;;;;;21093449;28;20044;-21
2021/08/11 11:29:48;;;;;;;2.47;1.50;;;20.70;63.00;;;;;;21082698;28;20066;-20
2021/08/11 11:39:49;;;;;;;7.70;1.73;;;20.70;63.00;;;;;;21081233;28;20036;-21
2021/08/11 11:50:18;;;;;;;2.10;1.48;;;20.70;62.90;;;;;;21081110;28;20047;-21
2021/08/11 12:00:19;;;;;;;2.25;1.48;;;20.70;63.00;;;;;;21079934;28;20036;-21
2021/08/11 12:10:28;;;;;;;2.55;1.38;;;20.70;63.00;;;;;;21077811;28;20544;-21
2021/08/11 12:20:33;;;;;;;2.33;1.52;;;20.70;63.00;;;;;;21076739;28;20028;-21
2021/08/11 12:30:35;;;;;;;2.50;1.67;;;20.70;62.90;;;;;;21077056;28;20039;-20
2021/08/11 12:40:40;;;;;;;2.55;1.92;;;20.70;63.00;;;;;;21076415;28;20028;-21
2021/08/11 12:50:40;;;;;;;2.75;1.80;;;20.70;63.00;;;;;;21077982;28;20446;-20
2021/08/11 13:00:44;;;;;;;2.15;1.70;;;20.80;63.10;;;;;;21074594;28;20028;-20
2021/08/11 13:10:56;;;;;;;2.45;1.58;;;20.70;63.00;;;;;;21075121;28;20089;-20
2021/08/11 13:20:56;;;;;;;2.28;1.48;;;20.80;63.10;;;;;;21073218;28;20430;-20
2021/08/11 13:30:57;;;;;;;2.00;1.40;;;20.80;63.00;;;;;;21071717;28;20032;-20
2021/08/11 13:40:57;;;;;;;2.13;1.70;;;20.80;63.00;;;;;;21071774;28;20046;-19
2021/08/11 13:50:58;;;;;;;1.90;1.40;;;20.70;62.90;;;;;;21070676;28;20032;-20
2021/08/11 14:00:58;;;;;;;2.60;1.45;;;20.70;62.90;;;;;;21070980;28;20133;-22
2021/08/11 14:10:59;;;;;;;2.05;1.42;;;20.80;62.90;;;;;;21070574;28;20158;-21
2021/08/11 14:20:59;;;;;;;2.05;1.48;;;20.80;62.90;;;;;;21073562;28;20103;-21
2021/08/11 14:31:00;;;;;;;2.92;1.73;;;20.70;62.90;;;;;;21069779;28;20032;-21
2021/08/11 14:41:01;;;;;;;2.10;1.65;;;20.70;62.90;;;;;;21069309;28;20048;-20
2021/08/11 14:51:02;;;;;;;2.03;1.48;;;20.70;62.90;;;;;;21081546;28;20406;-20
2021/08/11 15:01:03;;;;;;;2.25;1.45;;;20.70;62.90;;;;;;21084366;28;20111;-21
2021/08/11 15:11:04;;;;;;;2.03;1.20;;;20.70;62.90;;;;;;21083261;28;20036;-21
2021/08/11 15:21:04;;;;;;;1.88;1.30;;;20.80;62.90;;;;;;21082174;28;20119;-21
2021/08/11 15:31:11;;;;;;;1.38;1.00;;;20.70;62.80;;;;;;21084552;28;20063;-21
2021/08/11 15:41:13;;;;;;;1.98;1.48;;;20.70;62.80;;;;;;21080637;28;20173;-21
2021/08/11 15:51:15;;;;;;;1.70;1.08;;;20.80;62.90;;;;;;21079490;28;20031;-21
2021/08/11 16:01:15;;;;;;;1.85;1.55;;;20.70;62.80;;;;;;21080465;28;20036;-20
2021/08/11 16:11:16;;;;;;;2.05;1.60;;;20.80;62.80;;;;;;21082220;28;20112;-22
2021/08/11 16:21:19;;;;;;;1.60;1.20;;;20.80;63.00;;;;;;21077815;28;20040;-22
2021/08/11 16:31:19;;;;;;;1.65;1.17;;;20.80;63.10;;;;;;21076590;28;20028;-21
2021/08/11 16:41:20;;;;;;;2.03;1.60;;;20.90;63.10;;;;;;21074968;28;20034;-21
2021/08/11 16:51:21;;;;;;;1.73;1.20;;;21.00;63.20;;;;;;21073934;28;20032;-21
2021/08/11 17:01:21;;;;;;;2.00;1.35;;;21.00;63.10;;;;;;21073791;28;20027;-21
2021/08/11 17:11:22;;;;;;;2.05;1.20;;;21.00;63.00;;;;;;21072130;28;20076;-21
2021/08/11 17:21:22;;;;;;;2.10;1.50;;;21.10;62.90;;;;;;21072239;28;20039;-20
2021/08/11 17:31:23;;;;;;;1.70;1.13;;;21.10;62.80;;;;;;21071361;28;20028;-21
2021/08/11 17:41:24;;;;;;;2.92;1.00;;;21.00;62.90;;;;;;21070473;28;20086;-21
2021/08/11 17:51:24;;;;;;;2.53;1.58;;;20.90;63.00;;;;;;21069996;28;20032;-20
2021/08/11 18:01:25;;;;;;;1.67;1.20;;;20.90;63.10;;;;;;21069724;28;20036;-20
2021/08/11 18:11:27;;;;;;;4.80;1.50;;;20.90;63.00;;;;;;21068608;28;20102;-21
2021/08/11 18:21:28;;;;;;;2.40;1.48;;;20.90;63.00;;;;;;21067217;28;20032;-21
2021/08/11 18:31:29;;;;;;;2.17;1.45;;;20.90;63.00;;;;;;21067988;28;20036;-21
2021/08/11 18:41:29;;;;;;;1.77;1.33;;;20.90;63.00;;;;;;21067958;28;20504;-21
2021/08/11 18:51:30;;;;;;;3.95;1.30;;;20.80;62.90;;;;;;21068237;28;20470;-20
2021/08/11 19:01:30;;;;;;;3.38;1.08;;;20.80;62.70;;;;;;21067486;28;20490;-21
2021/08/11 19:11:31;;;;;;;1.75;1.10;;;20.80;62.70;;;;;;21076862;28;20040;-21
2021/08/11 19:21:33;;;;;;;2.22;1.52;;;20.80;62.80;;;;;;21066624;28;20103;-20
2021/08/11 19:31:34;;;;;;;2.20;1.65;;;20.80;62.70;;;;;;21070355;28;20093;-21
2021/08/11 19:41:34;;;;;;;2.10;1.30;;;20.80;62.70;;;;;;21082511;28;20032;-21
2021/08/11 19:51:35;;;;;;;3.33;1.58;;;20.80;62.70;;;;;;21081297;28;20067;-21
2021/08/11 20:01:36;;;;;;;2.55;1.67;;;20.80;63.30;;;;;;21078134;28;20036;-21
2021/08/11 20:11:36;;;;;;;3.30;1.58;;;20.80;62.90;;;;;;21077338;28;20508;-21
2021/08/11 20:21:38;;;;;;;1.73;1.30;;;20.80;62.90;;;;;;21076921;28;20409;-20
2021/08/11 20:31:38;;;;;;;2.65;1.80;;;20.70;62.80;;;;;;21076789;28;20039;-21
2021/08/11 20:41:39;;;;;;;3.75;1.45;;;20.80;62.90;;;;;;21074873;28;20381;-21
2021/08/11 20:51:39;;;;;;;2.63;1.50;;;20.70;62.80;;;;;;21075250;28;20063;-21
2021/08/11 21:01:40;;;;;;;2.90;1.58;;;20.80;63.30;;;;;;21073821;28;20081;-21
2021/08/11 21:11:40;;;;;;;2.90;1.90;;;20.80;62.80;;;;;;21072919;28;20369;-21
2021/08/11 21:21:41;;;;;;;2.47;1.50;;;20.70;62.80;;;;;;21072115;28;20032;-21
2021/08/11 21:31:41;;;;;;;3.45;1.60;;;20.80;62.70;;;;;;21071357;28;20097;-21
2021/08/11 21:41:42;;;;;;;3.10;1.80;;;20.70;62.70;;;;;;21071899;28;20077;-21
2021/08/11 21:51:43;;;;;;;2.40;1.67;;;20.80;62.70;;;;;;21070381;28;20089;-21
2021/08/11 22:01:43;;;;;;;2.83;1.55;;;20.70;62.70;;;;;;21069454;28;20047;-21
2021/08/11 22:11:44;;;;;;;2.78;1.60;;;20.70;62.70;;;;;;21068320;28;20040;-22
2021/08/11 22:21:45;;;;;;;2.58;1.48;;;20.80;62.70;;;;;;21068246;28;20039;-21
2021/08/11 22:31:46;;;;;;;2.13;1.50;;;20.70;62.70;;;;;;21067903;28;20039;-21
2021/08/11 22:41:46;;;;;;;1.88;1.40;;;20.70;62.80;;;;;;21067707;28;20561;-21
2021/08/11 22:51:47;;;;;;;2.63;1.70;;;20.70;62.70;;;;;;21067662;28;20109;-20
2021/08/11 23:01:48;;;;;;;2.78;1.60;;;20.70;62.70;;;;;;21070027;28;20078;-21
2021/08/11 23:11:48;;;;;;;3.15;2.35;;;20.70;62.70;;;;;;21080865;28;20067;-21
2021/08/11 23:21:49;;;;;;;2.17;1.52;;;20.70;62.70;;;;;;21082095;28;20361;-19
2021/08/11 23:31:50;;;;;;;2.55;1.75;;;20.70;62.80;;;;;;21083526;28;20035;-21
2021/08/11 23:41:50;;;;;;;2.78;2.20;;;20.70;62.70;;;;;;21081279;28;20446;-21
2021/08/11 23:51:51;;;;;;;2.72;1.83;;;20.70;62.80;;;;;;21082019;28;20028;-19
